createdAt,value
2018-01-19T00:00:36.873Z,7.93
2018-01-19T00:01:39.334Z,6.18
2018-01-19T00:02:41.805Z,8.02
2018-01-19T00:03:44.262Z,7.45
2018-01-19T00:04:46.738Z,8.20
2018-01-19T00:05:49.224Z,6.62
2018-01-19T00:06:51.665Z,4.93
2018-01-19T00:07:54.882Z,6.80
2018-01-19T00:08:57.550Z,6.90
2018-01-19T00:10:00.087Z,5.95
2018-01-19T00:11:02.563Z,4.80
2018-01-19T00:12:05.006Z,6.00
2018-01-19T00:13:08.242Z,5.30
2018-01-19T00:14:10.688Z,5.53
2018-01-19T00:15:13.939Z,6.35
2018-01-19T00:16:16.421Z,6.32
2018-01-19T00:17:19.030Z,5.82
2018-01-19T00:18:21.471Z,7.03
2018-01-19T00:19:23.925Z,6.22
2018-01-19T00:20:27.397Z,6.85
2018-01-19T00:21:29.877Z,8.55
2018-01-19T00:22:43.232Z,6.97
2018-01-19T00:23:45.694Z,5.47
2018-01-19T00:24:48.924Z,7.05
2018-01-19T00:25:51.394Z,6.70
2018-01-19T00:26:53.847Z,6.85
2018-01-19T00:27:56.333Z,7.07
2018-01-19T00:28:58.796Z,6.18
2018-01-19T00:30:01.574Z,9.65
2018-01-19T00:31:04.825Z,6.20
2018-01-19T00:32:07.344Z,6.95
2018-01-19T00:33:10.601Z,6.35
2018-01-19T00:34:13.068Z,6.30
2018-01-19T00:35:15.629Z,7.00
2018-01-19T00:36:18.864Z,6.53
2018-01-19T00:37:21.329Z,7.62
2018-01-19T00:38:23.816Z,8.27
2018-01-19T00:39:27.039Z,6.78
2018-01-19T00:40:30.281Z,10.25
2018-01-19T00:41:32.731Z,5.57
2018-01-19T00:42:35.970Z,7.75
2018-01-19T00:43:39.224Z,7.47
2018-01-19T00:44:41.751Z,11.60
2018-01-19T00:45:44.204Z,9.10
2018-01-19T00:46:46.790Z,8.98
2018-01-19T00:47:50.001Z,7.57
2018-01-19T00:48:52.489Z,8.25
2018-01-19T00:49:54.949Z,7.57
2018-01-19T00:50:57.525Z,7.45
2018-01-19T00:51:59.994Z,6.47
2018-01-19T00:53:02.454Z,8.30
2018-01-19T00:54:05.726Z,7.85
2018-01-19T00:55:08.998Z,10.02
2018-01-19T00:56:11.458Z,9.52
2018-01-19T00:57:15.721Z,8.48
2018-01-19T00:58:18.183Z,9.30
2018-01-19T00:59:20.652Z,6.70
2018-01-19T01:00:23.148Z,8.45
2018-01-19T01:01:25.627Z,6.93
2018-01-19T01:02:28.849Z,11.82
2018-01-19T01:03:31.357Z,8.05
2018-01-19T01:04:34.589Z,6.50
2018-01-19T01:05:37.072Z,9.25
2018-01-19T01:06:40.317Z,8.88
2018-01-19T01:07:42.855Z,11.05
2018-01-19T01:08:45.290Z,9.05
2018-01-19T01:09:48.511Z,12.32
2018-01-19T01:10:51.772Z,9.32
2018-01-19T01:11:54.226Z,12.43
2018-01-19T01:12:56.717Z,8.60
2018-01-19T01:13:59.171Z,7.97
2018-01-19T01:15:01.634Z,11.80
2018-01-19T01:16:04.898Z,10.25
2018-01-19T01:17:07.456Z,8.32
2018-01-19T01:18:09.941Z,9.32
2018-01-19T01:19:13.189Z,8.73
2018-01-19T01:20:15.673Z,8.18
2018-01-19T01:21:18.145Z,13.90
2018-01-19T01:22:20.618Z,10.32
2018-01-19T01:23:23.085Z,10.88
2018-01-19T01:24:26.352Z,10.95
2018-01-19T01:25:28.862Z,10.60
2018-01-19T01:26:31.345Z,10.43
2018-01-19T01:27:33.809Z,10.90
2018-01-19T01:28:36.287Z,10.00
2018-01-19T01:29:38.738Z,11.18
2018-01-19T01:30:41.957Z,12.30
2018-01-19T01:31:44.434Z,11.35
2018-01-19T01:32:46.885Z,11.63
2018-01-19T01:33:50.190Z,12.25
2018-01-19T01:34:52.677Z,12.57
2018-01-19T01:35:56.655Z,12.73
2018-01-19T01:36:59.887Z,10.77
2018-01-19T01:38:02.374Z,11.40
2018-01-19T01:39:04.838Z,11.10
2018-01-19T01:40:07.305Z,16.05
2018-01-19T01:41:09.776Z,11.57
2018-01-19T01:42:12.239Z,11.38
2018-01-19T01:43:15.523Z,11.30
2018-01-19T01:44:18.013Z,13.70
2018-01-19T01:45:20.545Z,14.38
2018-01-19T01:46:23.011Z,13.30
2018-01-19T01:47:25.485Z,13.18
2018-01-19T01:48:28.824Z,15.10
2018-01-19T01:49:32.602Z,12.88
2018-01-19T01:50:35.061Z,12.07
2018-01-19T01:51:37.561Z,15.25
2018-01-19T01:52:40.757Z,13.52
2018-01-19T01:53:44.052Z,14.93
2018-01-19T01:54:46.522Z,14.63
2018-01-19T01:55:48.971Z,13.80
2018-01-19T01:56:51.450Z,13.82
2018-01-19T01:57:53.906Z,11.75
2018-01-19T01:58:57.258Z,13.30
2018-01-19T01:59:59.713Z,11.60
2018-01-19T02:01:02.341Z,13.27
2018-01-19T02:02:04.846Z,13.02
2018-01-19T02:03:07.344Z,10.80
2018-01-19T02:04:11.334Z,17.70
2018-01-19T02:05:13.793Z,12.13
2018-01-19T02:06:16.260Z,11.15
2018-01-19T02:07:19.516Z,13.80
2018-01-19T02:08:22.761Z,12.00
2018-01-19T02:09:25.238Z,12.57
2018-01-19T02:10:29.213Z,14.90
2018-01-19T02:11:31.687Z,11.50
2018-01-19T02:12:34.151Z,11.40
2018-01-19T02:13:36.632Z,15.38
2018-01-19T02:14:39.091Z,10.55
2018-01-19T02:15:41.585Z,10.75
2018-01-19T02:16:44.031Z,12.98
2018-01-19T02:17:46.520Z,10.13
2018-01-19T02:18:48.969Z,13.85
2018-01-19T02:19:51.469Z,13.05
2018-01-19T02:20:54.000Z,12.45
2018-01-19T02:21:56.442Z,15.35
2018-01-19T02:22:58.945Z,11.48
2018-01-19T02:24:01.463Z,11.55
2018-01-19T02:25:03.931Z,13.10
2018-01-19T02:26:06.419Z,12.18
2018-01-19T02:27:08.873Z,11.38
2018-01-19T02:28:11.324Z,9.60
2018-01-19T02:29:14.282Z,13.93
2018-01-19T02:30:17.507Z,13.35
2018-01-19T02:31:20.756Z,12.07
2018-01-19T02:32:23.227Z,10.40
2018-01-19T02:33:25.817Z,11.48
2018-01-19T02:34:29.702Z,9.32
2018-01-19T02:35:32.174Z,10.60
2018-01-19T02:36:34.669Z,10.60
2018-01-19T02:37:37.137Z,10.73
2018-01-19T02:38:39.614Z,11.48
2018-01-19T02:39:42.168Z,10.75
2018-01-19T02:40:44.614Z,10.95
2018-01-19T02:41:47.088Z,10.43
2018-01-19T02:42:49.602Z,9.10
2018-01-19T02:43:52.049Z,12.02
2018-01-19T02:44:54.529Z,10.52
2018-01-19T02:45:57.771Z,8.00
2018-01-19T02:47:01.008Z,10.40
2018-01-19T02:48:04.232Z,11.75
2018-01-19T02:49:06.712Z,7.30
2018-01-19T02:50:09.160Z,9.93
2018-01-19T02:51:11.630Z,11.02
2018-01-19T02:52:14.867Z,9.45
2018-01-19T02:53:18.114Z,10.25
2018-01-19T02:54:21.378Z,8.48
2018-01-19T02:55:23.867Z,9.25
2018-01-19T02:56:26.374Z,10.15
2018-01-19T02:57:28.830Z,14.52
2018-01-19T02:58:32.057Z,8.07
2018-01-19T02:59:34.514Z,10.52
2018-01-19T03:00:37.755Z,8.73
2018-01-19T03:01:40.229Z,12.05
2018-01-19T03:02:42.683Z,12.68
2018-01-19T03:03:45.195Z,8.93
2018-01-19T03:04:47.649Z,9.55
2018-01-19T03:05:50.130Z,13.13
2018-01-19T03:06:53.658Z,10.68
2018-01-19T03:07:56.149Z,9.93
2018-01-19T03:08:58.779Z,8.65
2018-01-19T03:10:01.310Z,9.07
2018-01-19T03:11:03.774Z,13.65
2018-01-19T03:12:06.244Z,11.45
2018-01-19T03:13:10.083Z,8.93
2018-01-19T03:14:12.566Z,14.48
2018-01-19T03:15:15.053Z,9.98
2018-01-19T03:16:18.283Z,10.15
2018-01-19T03:17:20.732Z,10.45
2018-01-19T03:18:23.217Z,8.55
2018-01-19T03:19:25.674Z,10.15
2018-01-19T03:20:28.173Z,7.43
2018-01-19T03:21:30.633Z,7.55
2018-01-19T03:22:33.096Z,8.68
2018-01-19T03:23:35.605Z,7.70
2018-01-19T03:24:38.057Z,7.22
2018-01-19T03:25:42.017Z,10.32
2018-01-19T03:26:44.609Z,6.60
2018-01-19T03:27:47.061Z,8.00
2018-01-19T03:28:49.575Z,8.45
2018-01-19T03:29:52.031Z,7.35
2018-01-19T03:30:54.978Z,7.50
2018-01-19T03:31:58.195Z,7.37
2018-01-19T03:33:00.771Z,7.30
2018-01-19T03:34:03.279Z,7.03
2018-01-19T03:35:06.542Z,9.27
2018-01-19T03:36:09.044Z,7.20
2018-01-19T03:37:12.304Z,10.05
2018-01-19T03:38:14.758Z,7.68
2018-01-19T03:39:17.236Z,8.13
2018-01-19T03:40:20.498Z,8.73
2018-01-19T03:41:22.979Z,8.57
2018-01-19T03:42:25.449Z,7.90
2018-01-19T03:43:27.924Z,8.07
2018-01-19T03:44:30.496Z,6.53
2018-01-19T03:45:34.281Z,6.15
2018-01-19T03:46:37.304Z,8.60
2018-01-19T03:47:39.766Z,7.90
2018-01-19T03:48:42.237Z,8.02
2018-01-19T03:49:44.729Z,11.70
2018-01-19T03:50:47.201Z,6.95
2018-01-19T03:51:49.677Z,5.30
2018-01-19T03:52:52.166Z,6.78
2018-01-19T03:53:54.652Z,5.50
2018-01-19T03:54:57.870Z,7.35
2018-01-19T03:56:00.361Z,5.80
2018-01-19T03:57:02.820Z,6.87
2018-01-19T03:58:05.290Z,6.55
2018-01-19T03:59:07.769Z,5.57
2018-01-19T04:00:10.331Z,7.35
2018-01-19T04:01:12.781Z,9.15
2018-01-19T04:02:15.250Z,6.95
2018-01-19T04:03:17.736Z,7.57
2018-01-19T04:04:20.249Z,6.60
2018-01-19T04:05:23.418Z,7.30
2018-01-19T04:06:25.964Z,7.35
2018-01-19T04:07:28.458Z,9.95
2018-01-19T04:08:30.964Z,6.97
2018-01-19T04:09:33.490Z,8.00
2018-01-19T04:10:36.013Z,9.75
2018-01-19T04:11:38.482Z,8.27
2018-01-19T04:12:41.701Z,5.70
2018-01-19T04:13:44.167Z,9.85
2018-01-19T04:14:46.648Z,11.82
2018-01-19T04:15:49.228Z,7.03
2018-01-19T04:16:53.038Z,9.68
2018-01-19T04:17:55.509Z,6.22
2018-01-19T04:18:58.746Z,6.45
2018-01-19T04:20:01.962Z,8.18
2018-01-19T04:21:05.986Z,8.07
2018-01-19T04:22:08.493Z,6.90
2018-01-19T04:23:11.029Z,7.10
2018-01-19T04:24:13.477Z,7.65
2018-01-19T04:25:15.935Z,10.48
2018-01-19T04:26:18.495Z,6.55
2018-01-19T04:27:20.950Z,6.10
2018-01-19T04:28:23.426Z,7.87
2018-01-19T04:29:26.663Z,7.93
2018-01-19T04:30:29.929Z,5.78
2018-01-19T04:31:32.396Z,7.20
2018-01-19T04:32:34.879Z,6.78
2018-01-19T04:33:39.396Z,10.85
2018-01-19T04:34:41.889Z,5.15
2018-01-19T04:35:44.418Z,5.93
2018-01-19T04:36:46.886Z,7.18
2018-01-19T04:37:49.351Z,8.18
2018-01-19T04:38:51.833Z,7.82
2018-01-19T04:39:54.322Z,7.30
2018-01-19T04:40:56.780Z,6.35
2018-01-19T04:41:59.240Z,8.18
2018-01-19T04:43:01.790Z,12.23
2018-01-19T04:44:04.269Z,7.05
2018-01-19T04:45:06.740Z,10.55
2018-01-19T04:46:09.206Z,7.37
2018-01-19T04:47:11.844Z,8.23
2018-01-19T04:48:14.325Z,6.47
2018-01-19T04:49:16.846Z,8.05
2018-01-19T04:50:19.486Z,7.25
2018-01-19T04:51:24.786Z,10.55
2018-01-19T04:52:27.313Z,7.20
2018-01-19T04:53:30.027Z,6.00
2018-01-19T04:54:32.503Z,12.05
2018-01-19T04:55:35.742Z,7.60
2018-01-19T04:56:39.015Z,5.60
2018-01-19T04:57:41.506Z,6.75
2018-01-19T04:58:44.045Z,7.75
2018-01-19T04:59:47.284Z,5.45
2018-01-19T05:00:50.529Z,6.72
2018-01-19T05:01:53.768Z,7.90
2018-01-19T05:02:56.983Z,6.35
2018-01-19T05:03:59.548Z,7.68
2018-01-19T05:05:02.775Z,6.25
2018-01-19T05:06:06.023Z,6.20
2018-01-19T05:07:09.148Z,5.68
2018-01-19T05:08:11.601Z,6.12
2018-01-19T05:09:14.135Z,7.20
2018-01-19T05:10:16.616Z,6.05
2018-01-19T05:11:19.070Z,6.20
2018-01-19T05:12:22.287Z,7.07
2018-01-19T05:13:26.329Z,6.78
2018-01-19T05:14:28.896Z,7.50
2018-01-19T05:15:32.179Z,7.93
2018-01-19T05:16:34.682Z,6.25
2018-01-19T05:17:37.298Z,7.18
2018-01-19T05:18:40.572Z,5.93
2018-01-19T05:19:43.041Z,6.25
2018-01-19T05:20:45.667Z,8.48
2018-01-19T05:21:48.118Z,6.25
2018-01-19T05:22:51.522Z,11.82
2018-01-19T05:23:54.015Z,7.37
2018-01-19T05:24:56.531Z,5.50
2018-01-19T05:25:59.008Z,6.47
2018-01-19T05:27:01.595Z,8.27
2018-01-19T05:28:04.062Z,8.85
2018-01-19T05:29:06.527Z,7.37
2018-01-19T05:30:09.067Z,5.60
2018-01-19T05:31:11.576Z,6.37
2018-01-19T05:32:14.962Z,5.75
2018-01-19T05:33:17.513Z,6.20
2018-01-19T05:34:20.807Z,6.85
2018-01-19T05:35:23.279Z,5.78
2018-01-19T05:36:25.734Z,6.62
2018-01-19T05:37:28.188Z,5.90
2018-01-19T05:38:30.685Z,7.18
2018-01-19T05:39:34.005Z,5.72
2018-01-19T05:40:36.511Z,7.10
2018-01-19T05:41:39.763Z,5.85
2018-01-19T05:42:42.238Z,6.45
2018-01-19T05:43:44.691Z,6.87
2018-01-19T05:44:47.201Z,6.60
2018-01-19T05:45:49.669Z,6.75
2018-01-19T05:46:52.134Z,7.30
2018-01-19T05:47:54.606Z,6.25
2018-01-19T05:48:57.123Z,9.63
2018-01-19T05:49:59.610Z,6.37
2018-01-19T05:51:02.095Z,8.23
2018-01-19T05:52:04.554Z,5.65
2018-01-19T05:53:07.036Z,6.28
2018-01-19T05:54:09.516Z,4.65
2018-01-19T05:55:11.997Z,6.22
2018-01-19T05:56:14.557Z,5.70
2018-01-19T05:57:17.790Z,6.10
2018-01-19T05:58:20.374Z,7.32
2018-01-19T05:59:22.836Z,5.05
2018-01-19T06:00:26.070Z,6.50
2018-01-19T06:01:29.306Z,6.05
2018-01-19T06:02:32.563Z,4.90
2018-01-19T06:03:35.922Z,5.60
2018-01-19T06:04:38.414Z,5.18
2018-01-19T06:05:40.905Z,5.37
2018-01-19T06:06:43.389Z,5.25
2018-01-19T06:07:46.628Z,7.35
2018-01-19T06:08:49.871Z,5.90
2018-01-19T06:09:53.161Z,6.82
2018-01-19T06:10:55.650Z,5.72
2018-01-19T06:11:58.116Z,6.07
2018-01-19T06:13:00.584Z,6.65
2018-01-19T06:14:03.793Z,6.10
2018-01-19T06:15:06.253Z,6.03
2018-01-19T06:16:09.522Z,6.32
2018-01-19T06:17:11.991Z,6.53
2018-01-19T06:18:14.476Z,5.47
2018-01-19T06:19:17.026Z,8.00
2018-01-19T06:20:19.502Z,6.20
2018-01-19T06:21:21.977Z,6.30
2018-01-19T06:22:24.868Z,6.78
2018-01-19T06:23:27.329Z,5.72
2018-01-19T06:24:29.787Z,7.45
2018-01-19T06:25:32.310Z,6.22
2018-01-19T06:26:35.535Z,11.07
2018-01-19T06:27:38.149Z,7.35
2018-01-19T06:28:40.648Z,7.50
2018-01-19T06:29:43.097Z,11.52
2018-01-19T06:30:45.558Z,7.70
2018-01-19T06:31:48.783Z,5.57
2018-01-19T06:32:51.269Z,6.45
2018-01-19T06:33:53.785Z,6.43
2018-01-19T06:34:56.278Z,7.62
2018-01-19T06:35:59.539Z,7.95
2018-01-19T06:37:02.051Z,5.53
2018-01-19T06:38:04.566Z,7.62
2018-01-19T06:39:07.877Z,6.80
2018-01-19T06:40:10.408Z,5.32
2018-01-19T06:41:12.906Z,5.97
2018-01-19T06:42:15.350Z,6.50
2018-01-19T06:43:17.809Z,8.20
2018-01-19T06:44:20.266Z,7.68
2018-01-19T06:45:22.733Z,9.55
2018-01-19T06:46:26.428Z,7.35
2018-01-19T06:47:28.941Z,7.20
2018-01-19T06:48:31.807Z,9.32
2018-01-19T06:49:34.263Z,8.75
2018-01-19T06:50:36.738Z,8.35
2018-01-19T06:51:40.008Z,8.35
2018-01-19T06:52:42.478Z,7.65
2018-01-19T06:53:45.751Z,9.95
2018-01-19T06:54:48.966Z,9.27
2018-01-19T06:55:51.467Z,6.95
2018-01-19T06:56:53.977Z,8.90
2018-01-19T06:57:56.435Z,7.30
2018-01-19T06:58:58.904Z,8.80
2018-01-19T07:00:01.526Z,9.00
2018-01-19T07:01:03.992Z,9.15
2018-01-19T07:02:06.474Z,13.60
2018-01-19T07:03:08.953Z,7.80
2018-01-19T07:04:11.430Z,8.45
2018-01-19T07:05:14.316Z,7.82
2018-01-19T07:06:16.834Z,6.45
2018-01-19T07:07:19.403Z,9.35
2018-01-19T07:08:22.621Z,8.10
2018-01-19T07:09:25.157Z,15.18
2018-01-19T07:10:28.858Z,9.20
2018-01-19T07:11:31.363Z,8.98
2018-01-19T07:12:34.581Z,7.87
2018-01-19T07:13:37.907Z,9.82
2018-01-19T07:14:40.374Z,8.40
2018-01-19T07:15:42.880Z,9.35
2018-01-19T07:16:46.170Z,10.52
2018-01-19T07:17:48.679Z,10.85
2018-01-19T07:18:51.915Z,13.05
2018-01-19T07:19:55.110Z,9.65
2018-01-19T07:20:57.570Z,9.95
2018-01-19T07:22:00.835Z,9.48
2018-01-19T07:23:03.338Z,10.32
2018-01-19T07:24:05.787Z,13.30
2018-01-19T07:25:08.243Z,11.63
2018-01-19T07:26:10.713Z,7.90
2018-01-19T07:27:13.224Z,10.10
2018-01-19T07:28:16.466Z,10.18
2018-01-19T07:29:19.704Z,7.90
2018-01-19T07:30:22.975Z,8.68
2018-01-19T07:31:25.431Z,8.73
2018-01-19T07:32:27.932Z,12.00
2018-01-19T07:33:30.425Z,9.15
2018-01-19T07:34:33.662Z,10.77
2018-01-19T07:35:36.892Z,11.90
2018-01-19T07:36:39.362Z,15.10
2018-01-19T07:37:42.138Z,9.68
2018-01-19T07:38:44.641Z,8.93
2018-01-19T07:39:47.101Z,8.65
2018-01-19T07:40:49.581Z,11.60
2018-01-19T07:41:52.079Z,10.52
2018-01-19T07:42:55.316Z,12.40
2018-01-19T07:43:59.289Z,13.62
2018-01-19T07:45:01.752Z,9.10
2018-01-19T07:46:04.221Z,11.48
2018-01-19T07:47:07.442Z,11.50
2018-01-19T07:48:10.002Z,9.80
2018-01-19T07:49:12.497Z,9.20
2018-01-19T07:50:14.964Z,11.05
2018-01-19T07:51:17.435Z,12.35
2018-01-19T07:52:20.693Z,10.68
2018-01-19T07:53:23.952Z,10.98
2018-01-19T07:54:27.257Z,10.77
2018-01-19T07:55:29.724Z,8.80
2018-01-19T07:56:32.232Z,8.98
2018-01-19T07:57:34.698Z,9.82
2018-01-19T07:58:37.165Z,10.00
2018-01-19T07:59:39.632Z,14.30
2018-01-19T08:00:42.085Z,12.70
2018-01-19T08:01:44.566Z,9.90
2018-01-19T08:02:47.872Z,10.25
2018-01-19T08:03:50.378Z,12.32
2018-01-19T08:04:52.852Z,12.95
2018-01-19T08:05:56.099Z,15.32
2018-01-19T08:06:59.326Z,10.75
2018-01-19T08:08:01.875Z,12.18
2018-01-19T08:09:05.124Z,15.13
2018-01-19T08:10:08.339Z,10.85
2018-01-19T08:11:10.823Z,8.50
2018-01-19T08:12:13.291Z,12.57
2018-01-19T08:13:15.745Z,12.70
2018-01-19T08:14:18.213Z,11.75
2018-01-19T08:15:20.704Z,11.80
2018-01-19T08:16:23.157Z,11.63
2018-01-19T08:17:25.623Z,12.80
2018-01-19T08:18:28.871Z,12.77
2018-01-19T08:19:32.112Z,10.45
2018-01-19T08:20:34.578Z,10.60
2018-01-19T08:21:37.044Z,11.73
2018-01-19T08:22:39.587Z,13.73
2018-01-19T08:23:42.824Z,14.23
2018-01-19T08:24:46.180Z,18.52
2018-01-19T08:25:49.534Z,14.40
2018-01-19T08:26:51.994Z,15.32
2018-01-19T08:27:54.478Z,14.65
2018-01-19T08:28:56.936Z,13.98
2018-01-19T08:29:59.626Z,17.37
2018-01-19T08:31:02.845Z,12.25
2018-01-19T08:32:05.366Z,11.75
2018-01-19T08:33:09.342Z,14.18
2018-01-19T08:34:12.602Z,12.27
2018-01-19T08:35:15.127Z,11.82
2018-01-19T08:36:17.598Z,15.07
2018-01-19T08:37:20.067Z,10.43
2018-01-19T08:38:23.289Z,12.35
2018-01-19T08:39:25.938Z,11.38
2018-01-19T08:40:29.185Z,11.35
2018-01-19T08:41:31.648Z,12.82
2018-01-19T08:42:34.113Z,12.18
2018-01-19T08:43:36.665Z,10.75
2018-01-19T08:44:39.882Z,10.93
2018-01-19T08:45:43.242Z,13.15
2018-01-19T08:46:46.473Z,16.90
2018-01-19T08:47:49.696Z,15.13
2018-01-19T08:48:52.157Z,10.48
2018-01-19T08:49:54.641Z,13.43
2018-01-19T08:50:57.121Z,12.02
2018-01-19T08:51:59.580Z,16.20
2018-01-19T08:53:02.060Z,11.43
2018-01-19T08:54:04.532Z,16.23
2018-01-19T08:55:06.992Z,17.50
2018-01-19T08:56:10.230Z,13.60
2018-01-19T08:57:13.503Z,15.35
2018-01-19T08:58:16.038Z,17.12
2018-01-19T09:00:28.228Z,11.18
2018-01-19T09:01:31.479Z,13.50
2018-01-19T09:02:34.717Z,10.88
2018-01-19T09:03:37.229Z,12.23
2018-01-19T09:04:40.449Z,12.52
2018-01-19T09:05:42.938Z,15.38
2018-01-19T09:06:45.413Z,14.10
2018-01-19T09:07:47.878Z,15.88
2018-01-19T09:08:50.365Z,16.20
2018-01-19T09:09:52.836Z,14.82
2018-01-19T09:10:55.332Z,13.35
2018-01-19T09:11:58.561Z,17.77
2018-01-19T09:13:01.838Z,14.48
2018-01-19T09:14:04.343Z,11.15
2018-01-19T09:15:06.921Z,17.67
2018-01-19T09:16:09.441Z,14.82
2018-01-19T09:17:11.975Z,9.50
2018-01-19T09:18:14.479Z,15.40
2018-01-19T09:19:16.935Z,11.85
2018-01-19T09:20:20.228Z,11.95
2018-01-19T09:21:22.688Z,12.13
2018-01-19T09:22:25.212Z,15.30
2018-01-19T09:23:27.772Z,13.40
2018-01-19T09:24:30.317Z,13.70
2018-01-19T09:25:33.566Z,11.32
2018-01-19T09:26:36.030Z,15.57
2018-01-19T09:27:38.580Z,11.20
2018-01-19T09:28:41.031Z,13.45
2018-01-19T09:29:44.397Z,13.80
2018-01-19T09:30:46.875Z,9.65
2018-01-19T09:31:49.346Z,11.18
2018-01-19T09:32:51.870Z,14.80
2018-01-19T09:33:54.403Z,11.80
2018-01-19T09:34:56.915Z,12.30
2018-01-19T09:35:59.439Z,10.57
2018-01-19T09:37:01.902Z,10.55
2018-01-19T09:38:04.573Z,10.13
2018-01-19T09:39:07.130Z,15.00
2018-01-19T09:40:09.586Z,11.90
2018-01-19T09:41:12.048Z,10.77
2018-01-19T09:42:15.330Z,9.50
2018-01-19T09:43:17.821Z,12.35
2018-01-19T09:44:20.363Z,19.52
2018-01-19T09:45:22.826Z,15.93
2018-01-19T09:46:25.298Z,11.55
2018-01-19T09:47:28.557Z,9.77
2018-01-19T09:48:31.065Z,11.70
2018-01-19T09:49:34.458Z,12.10
2018-01-19T09:50:36.931Z,12.27
2018-01-19T09:51:40.202Z,13.05
2018-01-19T09:52:42.686Z,11.05
2018-01-19T09:53:45.145Z,11.12
2018-01-19T09:54:47.632Z,10.63
2018-01-19T09:55:50.189Z,12.85
2018-01-19T09:56:53.424Z,10.40
2018-01-19T09:57:56.773Z,11.35
2018-01-19T09:58:59.254Z,10.60
2018-01-19T10:00:01.833Z,12.35
2018-01-19T10:01:04.310Z,11.18
2018-01-19T10:02:08.306Z,17.50
2018-01-19T10:03:12.127Z,13.50
2018-01-19T10:04:14.592Z,14.02
2018-01-19T10:05:17.126Z,16.85
2018-01-19T10:06:19.601Z,12.55
2018-01-19T10:07:22.573Z,12.27
2018-01-19T10:08:25.807Z,13.35
2018-01-19T10:09:28.341Z,18.02
2018-01-19T10:10:31.603Z,12.63
2018-01-19T10:11:34.837Z,13.50
2018-01-19T10:12:37.305Z,12.70
2018-01-19T10:13:39.767Z,12.20
2018-01-19T10:14:43.005Z,17.62
2018-01-19T10:15:46.269Z,16.20
2018-01-19T10:16:48.763Z,14.30
2018-01-19T10:17:51.229Z,16.42
2018-01-19T10:18:53.706Z,16.27
2018-01-19T10:19:56.218Z,13.30
2018-01-19T10:20:58.711Z,15.57
2018-01-19T10:22:01.182Z,11.90
2018-01-19T10:23:03.647Z,11.68
2018-01-19T10:24:06.108Z,18.00
2018-01-19T10:25:08.793Z,18.42
2018-01-19T10:26:11.371Z,19.67
2018-01-19T10:27:13.832Z,14.90
2018-01-19T10:28:17.077Z,14.90
2018-01-19T10:29:20.310Z,13.60
2018-01-19T10:30:22.804Z,15.38
2018-01-19T10:31:25.270Z,13.82
2018-01-19T10:32:28.489Z,14.23
2018-01-19T10:33:30.964Z,17.15
2018-01-19T10:34:33.433Z,15.57
2018-01-19T10:35:35.916Z,11.82
2018-01-19T10:36:38.438Z,13.70
2018-01-19T10:37:40.904Z,13.10
2018-01-19T10:38:43.361Z,13.73
2018-01-19T10:39:46.645Z,13.25
2018-01-19T10:40:49.878Z,17.15
2018-01-19T10:41:52.376Z,11.63
2018-01-19T10:42:55.734Z,20.02
2018-01-19T10:43:59.089Z,13.98
2018-01-19T10:45:02.747Z,15.95
2018-01-19T10:46:05.709Z,18.73
2018-01-19T10:47:08.420Z,18.37
2018-01-19T10:48:10.904Z,12.07
2018-01-19T10:49:15.561Z,14.07
2018-01-19T10:50:19.635Z,14.30
2018-01-19T10:51:22.873Z,17.87
2018-01-19T10:52:25.339Z,21.98
2018-01-19T10:53:27.872Z,12.40
2018-01-19T10:54:30.404Z,15.77
2018-01-19T10:55:32.879Z,15.90
2018-01-19T10:56:36.121Z,23.67
2018-01-19T10:57:39.461Z,20.52
2018-01-19T10:58:42.711Z,20.73
2018-01-19T10:59:45.943Z,14.90
2018-01-19T11:00:48.405Z,14.20
2018-01-19T11:01:50.919Z,18.52
2018-01-19T11:02:53.403Z,14.55
2018-01-19T11:03:55.982Z,15.68
2018-01-19T11:04:58.455Z,14.05
2018-01-19T11:06:00.961Z,19.08
2018-01-19T11:07:03.437Z,15.00
2018-01-19T11:08:06.735Z,19.67
2018-01-19T11:09:09.231Z,19.80
2018-01-19T11:10:11.689Z,18.40
2018-01-19T11:11:14.234Z,12.80
2018-01-19T11:12:16.719Z,14.93
2018-01-19T11:13:19.190Z,14.10
2018-01-19T11:14:22.481Z,15.23
2018-01-19T11:15:24.965Z,20.40
2018-01-19T11:16:28.226Z,16.50
2018-01-19T11:17:30.768Z,10.70
2018-01-19T11:18:33.237Z,13.62
2018-01-19T11:19:36.478Z,12.23
2018-01-19T11:20:39.734Z,17.30
2018-01-19T11:21:42.204Z,13.30
2018-01-19T11:22:44.676Z,13.00
2018-01-19T11:23:47.154Z,22.10
2018-01-19T11:24:49.666Z,14.18
2018-01-19T11:25:52.143Z,23.02
2018-01-19T11:26:54.618Z,16.87
2018-01-19T11:27:57.091Z,18.73
2018-01-19T11:28:59.577Z,18.27
2018-01-19T11:30:02.086Z,14.35
2018-01-19T11:31:04.596Z,16.87
2018-01-19T11:32:07.871Z,17.87
2018-01-19T11:33:10.324Z,21.70
2018-01-19T11:34:12.781Z,18.48
2018-01-19T11:35:16.047Z,17.62
2018-01-19T11:36:18.618Z,18.85
2018-01-19T11:37:21.123Z,15.80
2018-01-19T11:38:23.605Z,20.10
2018-01-19T11:39:26.885Z,21.92
2018-01-19T11:40:29.410Z,13.10
2018-01-19T11:41:31.926Z,17.58
2018-01-19T11:42:34.416Z,18.00
2018-01-19T11:43:36.898Z,19.40
2018-01-19T11:44:39.368Z,20.85
2018-01-19T11:45:42.666Z,22.20
2018-01-19T11:46:45.121Z,22.60
2018-01-19T11:47:47.628Z,19.60
2018-01-19T11:48:50.089Z,17.98
2018-01-19T11:49:53.329Z,24.17
2018-01-19T11:50:55.795Z,19.65
2018-01-19T11:51:58.309Z,23.05
2018-01-19T11:53:01.613Z,16.42
2018-01-19T11:54:04.106Z,26.73
2018-01-19T11:55:06.588Z,22.85
2018-01-19T11:56:09.842Z,25.42
2018-01-19T11:57:12.319Z,19.87
2018-01-19T11:58:14.830Z,20.67
2018-01-19T11:59:17.294Z,20.77
2018-01-19T12:00:20.525Z,23.23
2018-01-19T12:01:23.846Z,21.55
2018-01-19T12:02:26.321Z,18.40
2018-01-19T12:03:28.806Z,25.45
2018-01-19T12:04:31.378Z,29.60
2018-01-19T12:05:33.878Z,25.23
2018-01-19T12:06:36.435Z,24.87
2018-01-19T12:07:38.961Z,23.08
2018-01-19T12:08:41.490Z,22.60
2018-01-19T12:09:44.024Z,22.70
2018-01-19T12:10:46.555Z,21.90
2018-01-19T12:11:49.017Z,21.98
2018-01-19T12:12:51.489Z,24.85
2018-01-19T12:13:53.978Z,23.50
2018-01-19T12:14:56.458Z,23.60
2018-01-19T12:15:58.931Z,25.23
2018-01-19T12:17:01.414Z,22.80
2018-01-19T12:18:03.898Z,26.90
2018-01-19T12:19:07.198Z,20.92
2018-01-19T12:20:09.702Z,19.27
2018-01-19T12:21:12.167Z,21.23
2018-01-19T12:22:14.617Z,22.13
2018-01-19T12:23:17.883Z,25.20
2018-01-19T12:24:20.348Z,19.80
2018-01-19T12:25:22.825Z,20.92
2018-01-19T12:26:25.294Z,22.77
2018-01-19T12:27:27.797Z,16.45
2018-01-19T12:28:30.254Z,19.35
2018-01-19T12:29:32.825Z,17.27
2018-01-19T12:30:35.330Z,22.75
2018-01-19T12:31:38.562Z,31.10
2018-01-19T12:32:41.857Z,31.80
2018-01-19T12:33:44.325Z,25.90
2018-01-19T12:34:46.928Z,26.95
2018-01-19T12:35:49.421Z,24.55
2018-01-19T12:36:51.889Z,25.33
2018-01-19T12:37:55.886Z,22.17
2018-01-19T12:38:59.152Z,25.42
2018-01-19T12:40:01.672Z,20.92
2018-01-19T12:41:04.150Z,26.55
2018-01-19T12:42:06.636Z,30.40
2018-01-19T12:43:09.148Z,20.62
2018-01-19T12:44:11.667Z,20.35
2018-01-19T12:45:14.179Z,24.48
2018-01-19T12:46:17.393Z,24.83
2018-01-19T12:47:19.950Z,29.80
2018-01-19T12:48:23.196Z,21.52
2018-01-19T12:49:25.685Z,21.60
2018-01-19T12:50:29.662Z,23.83
2018-01-19T12:51:32.926Z,27.55
2018-01-19T12:52:36.267Z,23.42
2018-01-19T12:53:38.730Z,21.35
2018-01-19T12:54:41.208Z,18.60
2018-01-19T12:55:44.537Z,22.77
2018-01-19T12:56:47.783Z,24.70
2018-01-19T12:57:51.057Z,22.92
2018-01-19T12:58:53.542Z,19.60
2018-01-19T12:59:56.032Z,19.55
2018-01-19T13:00:58.531Z,21.85
2018-01-19T13:02:01.007Z,24.05
2018-01-19T13:03:03.474Z,24.85
2018-01-19T13:04:06.718Z,20.27
2018-01-19T13:05:09.869Z,24.30
2018-01-19T13:06:12.336Z,24.85
2018-01-19T13:07:14.810Z,20.83
2018-01-19T13:08:17.287Z,20.20
2018-01-19T13:09:19.772Z,21.58
2018-01-19T13:10:22.286Z,18.85
2018-01-19T13:11:24.791Z,22.52
2018-01-19T13:12:28.025Z,27.37
2018-01-19T13:13:31.265Z,24.58
2018-01-19T13:14:34.500Z,19.25
2018-01-19T13:15:37.071Z,20.05
2018-01-19T13:16:39.546Z,19.12
2018-01-19T13:17:42.062Z,20.62
2018-01-19T13:18:44.511Z,16.05
2018-01-19T13:19:47.844Z,17.02
2018-01-19T13:20:50.408Z,21.92
2018-01-19T13:21:52.851Z,15.93
2018-01-19T13:22:55.313Z,19.12
2018-01-19T13:23:57.880Z,17.75
2018-01-19T13:25:00.383Z,20.10
2018-01-19T13:26:03.623Z,18.05
2018-01-19T13:27:06.091Z,16.42
2018-01-19T13:28:08.549Z,18.25
2018-01-19T13:29:11.025Z,17.45
2018-01-19T13:30:13.533Z,20.77
2018-01-19T13:31:16.771Z,18.95
2018-01-19T13:32:20.033Z,21.40
2018-01-19T13:33:23.002Z,17.45
2018-01-19T13:34:25.468Z,18.87
2018-01-19T13:35:29.423Z,17.83
2018-01-19T13:36:32.649Z,16.02
2018-01-19T13:37:35.138Z,19.10
2018-01-19T13:38:37.638Z,19.73
2018-01-19T13:39:40.943Z,23.27
2018-01-19T13:40:43.398Z,25.08